PBM weather

Johan Adolf Pengel International Airport
Zandery, Para, Suriname

Public forecast

Using degrees Celsius for public forecast. Weather courtesy of forecast.io.

METAR (pilot weather report)

Retrieved 2019/06/20 00:00 UTC (13 minutes ago):

SMJP 200000Z VRB02KT 9999 FEW010 FEW018CB 26/24 Q1014 NOSIG

TAF (pilot weather forecast)

Forecast is more than 12 hours old.

Retrieved 2019/06/19 00:16 UTC (24 hours ago):

TAF SMJP 192200Z 2000/2024 05004KT 9999 SCT015 SCT025 TX30/2018Z TN23/2009Z BECMG 2011/2013 08008KT TEMPO 2012/2022 5000 SHRA SCT012 FEW015CB SCT020